Date,TemperatureHighF,TemperatureAvgF,TemperatureLowF,DewpointHighF,DewpointAvgF,DewpointLowF,HumidityHigh,HumidityAvg,HumidityLow,PressureMaxIn,PressureMinIn,WindSpeedMaxMPH,WindSpeedAvgMPH,GustSpeedMaxMPH,PrecipitationSumIn
2013-1-1,35.7,29.9,26.6,19.7,13.2,6.4,58,49,40,30.43,30.31,12,1,12,0.01
2013-1-2,38.7,32.5,25.7,13.9,10.8,6.1,54,41,28,30.36,30.27,19,3,19,0.01
2013-1-3,38.6,33.9,29.4,11.8,8.4,0.2,46,34,26,30.39,30.24,18,3,18,0.00
2013-1-4,45.6,36.4,29.6,17.9,5.0,-5.6,35,26,17,30.45,30.35,6,0,6,0.10
2013-1-5,48.5,40.3,35.0,19.7,7.9,-14.1,40,27,10,30.40,30.21,11,0,11,0.07
2013-1-6,34.1,30.2,28.6,29.3,26.2,13.3,97,87,42,30.23,30.11,13,1,13,0.00
2013-1-7,39.2,31.3,24.1,28.0,22.3,11.9,97,73,34,30.31,30.10,19,4,19,0.13
2013-1-8,50.2,43.6,37.5,31.0,25.5,13.8,62,49,36,30.35,30.25,32,2,32,0.20
2013-1-9,52.4,45.2,38.6,33.4,28.9,25.0,70,53,41,30.30,29.97,14,1,14,0.00
2013-1-10,40.0,28.3,19.3,32.9,26.6,16.7,97,93,61,30.17,29.86,16,2,16,0.09
2013-1-11,28.7,22.0,17.0,20.4,16.7,13.2,90,81,59,30.33,30.13,13,1,13,0.15
2013-1-12,28.6,21.7,15.6,14.1,11.0,3.1,88,65,35,30.34,30.22,13,0,13,0.07
2013-1-13,30.6,23.6,18.2,14.9,8.4,1.2,73,52,36,30.32,30.21,12,0,12,0.05
2013-1-14,24.2,19.2,12.9,3.9,-1.4,-6.1,58,40,29,30.59,30.30,22,4,22,0.00
2013-1-15,40.5,33.3,22.5,22.4,17.0,2.9,59,51,42,30.66,30.51,23,4,23,0.02
2013-1-16,44.1,40.0,34.7,22.6,19.3,13.3,54,43,33,30.52,30.37,24,5,24,0.03
2013-1-17,44.9,39.7,35.0,15.8,13.4,11.3,42,34,26,30.43,30.33,16,2,16,0.00
2013-1-18,45.7,39.2,33.9,17.3,13.7,11.1,42,35,29,30.39,30.33,10,0,10,0.00
2013-1-19,46.1,40.2,35.1,14.4,11.3,7.1,40,30,24,30.43,30.34,6,1,6,0.00
2013-1-20,47.4,42.1,37.8,13.5,8.4,2.9,30,25,20,30.38,30.25,10,1,10,0.00
2013-1-21,51.7,44.1,39.5,14.4,6.1,-3.4,27,21,15,30.31,30.23,16,2,16,0.00
2013-1-22,59.2,49.6,40.7,16.5,4.6,-9.3,23,16,7,30.28,30.19,9,0,9,0.00
2013-1-23,58.6,50.8,38.8,34.9,29.2,13.0,85,45,22,30.21,30.09,15,2,15,0.05
2013-1-24,48.4,43.3,38.6,47.8,41.7,31.2,98,94,73,30.28,30.10,12,1,12,0.83
2013-1-25,46.8,44.3,42.2,46.5,43.7,41.4,99,98,96,30.26,30.02,7,0,7,0.80
2013-1-26,47.9,43.4,41.0,46.1,42.9,40.6,99,98,89,30.03,29.95,11,0,11,0.13
2013-1-27,41.9,35.5,25.9,41.6,35.2,23.7,99,99,97,30.05,29.94,17,2,17,0.06
2013-1-28,30.9,25.6,22.4,30.2,24.2,20.4,99,94,85,30.36,30.04,13,0,13,0.06
2013-1-29,46.7,34.5,22.4,34.7,26.9,19.2,93,75,52,30.43,30.33,20,1,20,0.36
2013-1-30,48.8,43.7,39.2,32.6,28.2,23.6,64,54,46,30.45,30.33,18,2,20,0.14
2013-1-31,49.6,45.1,40.1,31.9,29.1,26.8,63,53,45,30.36,30.25,15,2,15,0.00
2013-2-1,56.9,47.6,42.0,34.7,29.4,24.8,55,49,37,30.33,30.25,5,0,5,0.00
2013-2-2,56.2,48.6,41.8,38.7,31.5,26.9,78,52,43,30.33,30.23,4,0,4,0.02
2013-2-3,47.5,42.5,37.7,39.7,35.4,29.6,95,77,60,30.24,30.13,13,1,13,0.08
2013-2-4,55.1,45.9,39.9,33.8,26.5,19.4,68,47,33,30.22,30.12,11,0,11,0.00
2013-2-5,52.2,45.5,40.9,39.3,28.9,15.2,71,53,31,30.14,30.01,11,1,11,0.00
2013-2-6,48.7,41.9,32.9,31.0,23.1,6.5,88,49,23,30.20,30.00,10,1,10,0.00
2013-2-7,48.5,41.1,31.6,38.8,26.7,7.0,97,62,24,30.20,29.92,19,2,19,0.00
2013-2-8,31.4,26.4,21.9,30.6,25.4,19.4,97,96,95,30.03,29.89,14,1,14,0.00
2013-2-9,31.4,24.8,19.5,29.5,23.6,18.1,97,95,90,30.27,30.02,10,0,10,0.28
2013-2-10,31.2,26.7,22.4,30.2,25.7,20.9,97,96,88,30.27,30.17,12,0,12,0.13
2013-2-11,31.2,27.6,23.2,26.4,16.1,6.4,97,65,37,30.43,30.21,18,3,18,0.06
2013-2-12,39.2,33.8,27.3,19.3,13.3,7.6,48,42,36,30.52,30.41,13,2,13,0.16
2013-2-13,45.9,39.3,31.9,21.6,16.6,9.9,45,40,32,30.43,30.32,15,2,15,0.14
2013-2-14,49.2,44.0,38.1,25.9,22.3,18.6,52,42,36,30.35,30.25,17,3,17,0.03
2013-2-15,51.2,44.5,38.7,22.6,17.5,6.6,52,34,22,30.42,30.29,17,2,17,0.00
2013-2-16,57.2,47.5,40.0,26.1,12.1,-0.8,34,24,14,30.41,30.07,6,0,6,0.00
2013-2-17,50.1,43.6,38.5,31.6,19.9,11.7,72,40,24,30.07,29.97,10,0,10,0.00
2013-2-18,49.7,40.9,35.3,33.1,25.7,17.8,91,57,33,30.09,29.96,11,1,11,0.00
2013-2-19,35.1,29.9,26.6,31.0,28.8,24.5,97,96,68,29.97,29.72,18,2,18,0.01
2013-2-20,31.9,26.4,19.6,30.9,25.4,18.2,97,96,94,30.16,29.71,12,1,12,0.17
2013-2-21,32.6,27.3,24.1,30.8,24.4,18.7,97,89,73,30.30,30.12,11,1,11,0.17
2013-2-22,41.4,33.1,24.6,28.3,22.2,16.1,90,66,38,30.40,30.29,7,0,7,0.39
2013-2-23,50.6,37.1,30.3,31.9,26.4,11.0,82,67,24,30.31,30.02,24,2,24,0.16
2013-2-24,37.0,31.3,25.4,12.1,4.8,-2.7,47,33,20,30.41,30.06,32,5,32,0.00
2013-2-25,48.2,38.4,31.2,20.9,10.6,-3.2,50,32,19,30.41,30.18,11,1,11,0.00
2013-2-26,44.9,38.1,30.5,20.9,13.4,4.8,64,37,25,30.31,30.11,17,2,17,0.00
2013-2-27,43.9,38.8,33.5,14.1,7.5,1.8,34,27,19,30.47,30.31,19,3,19,0.00
2013-2-28,50.9,44.5,35.7,15.0,9.3,2.4,27,23,20,30.51,30.44,14,2,14,0.00
2013-3-1,58.4,49.4,41.6,23.1,16.5,9.3,34,27,22,30.48,30.34,14,2,14,0.00
2013-3-2,61.2,53.1,47.2,27.5,20.5,14.5,41,28,19,30.40,30.14,13,1,13,0.00
2013-3-3,52.4,46.1,37.8,35.5,26.6,19.0,78,48,32,30.15,29.98,15,1,15,0.00
2013-3-4,54.7,43.7,34.6,43.1,34.3,30.4,91,70,46,30.19,30.02,12,1,12,0.00
2013-3-5,53.1,44.4,36.6,43.2,37.5,33.9,97,78,56,30.17,30.01,19,2,19,0.02
2013-3-6,39.2,35.6,32.3,38.7,35.0,31.5,98,98,97,30.15,30.02,15,2,15,0.08
2013-3-7,35.4,33.3,31.4,35.0,32.9,30.2,99,99,98,30.08,29.94,12,2,12,0.56
2013-3-8,31.2,29.2,27.4,31.0,28.8,26.7,99,98,97,30.16,29.83,0,0,0,0.00
2013-3-9,40.4,34.0,28.8,36.3,31.3,27.7,99,90,71,30.37,30.15,12,1,12,0.95
2013-3-10,48.1,41.7,33.6,28.1,18.8,2.7,80,42,18,30.45,30.35,24,3,24,0.09
2013-3-11,58.3,49.8,42.7,29.8,15.4,2.7,41,25,16,30.36,30.16,6,0,9,0.00
2013-3-12,62.9,54.0,47.1,32.6,21.2,7.3,41,28,18,30.21,30.13,6,0,6,0.00
2013-3-13,68.3,59.2,51.9,34.1,25.3,18.1,33,27,21,30.23,30.14,6,0,6,0.00
2013-3-14,70.2,61.7,55.0,39.9,29.3,22.3,45,30,20,30.17,30.06,9,0,9,0.00
2013-3-15,66.6,58.7,51.3,39.3,28.9,5.6,49,33,17,30.08,29.94,14,1,14,0.00
2013-3-16,66.8,55.6,45.8,33.3,23.2,-2.7,42,29,10,29.96,29.90,13,1,13,0.00
2013-3-17,63.4,51.3,44.3,45.3,26.8,12.6,71,41,16,30.01,29.89,13,1,13,0.00
2013-3-18,63.3,51.0,41.5,47.2,24.1,10.5,68,36,20,30.08,29.97,6,1,6,0.00
2013-3-19,62.9,51.4,44.0,41.5,31.0,24.6,68,46,30,30.14,30.02,13,1,13,0.00
2013-3-20,54.9,49.9,45.8,44.2,37.8,32.8,82,63,52,30.12,29.97,12,1,12,0.00
2013-3-21,60.9,47.6,39.9,46.4,36.9,23.3,91,69,25,29.99,29.85,15,1,15,0.00
2013-3-22,59.4,45.5,36.6,41.0,25.7,8.4,91,50,17,30.00,29.83,13,1,13,0.00
2013-3-23,58.9,46.3,35.5,33.6,23.5,4.6,59,42,12,30.11,29.98,10,0,10,0.00
2013-3-24,61.3,50.1,40.8,33.1,20.1,13.5,46,31,20,30.10,29.99,6,0,6,0.00
2013-3-25,59.7,51.3,45.2,34.3,26.7,19.9,48,38,33,30.03,29.99,13,1,13,0.00
2013-3-26,56.7,49.2,43.2,39.8,32.6,22.5,82,53,36,29.99,29.91,12,1,12,0.00
2013-3-27,54.1,46.6,42.2,42.9,36.1,25.9,92,68,49,30.07,29.92,12,1,12,0.00
2013-3-28,58.7,48.7,42.0,45.0,37.8,32.2,85,67,40,30.15,30.05,12,1,12,0.00
2013-3-29,61.9,52.4,45.2,46.2,36.6,31.7,82,56,34,30.17,30.10,12,1,12,0.00
2013-3-30,58.7,51.3,42.6,42.8,33.4,9.5,85,53,20,30.13,30.06,13,1,13,0.00
2013-3-31,51.2,43.8,39.3,43.6,38.1,22.4,97,81,45,30.13,30.06,13,1,13,0.00
2013-4-1,44.7,39.2,35.7,41.4,37.7,34.5,98,95,86,30.22,30.10,10,1,10,0.01
2013-4-2,60.7,46.3,35.8,44.7,35.2,28.6,91,68,33,30.23,30.11,7,1,7,0.00
2013-4-3,65.8,54.8,46.4,39.9,32.0,24.8,58,42,30,30.16,30.08,7,0,7,0.00
2013-4-4,59.9,52.1,44.0,45.6,36.8,26.1,94,59,31,30.11,30.00,13,1,13,0.00
2013-4-5,61.7,47.7,40.2,47.0,41.9,33.4,96,83,42,30.09,30.01,10,1,10,0.00
2013-4-6,64.1,49.0,39.8,46.2,37.4,30.2,96,67,36,30.10,30.01,13,1,13,0.00
2013-4-7,64.3,49.3,40.7,48.6,38.2,30.1,91,68,32,30.02,29.81,12,1,12,0.00
2013-4-8,43.6,38.6,34.0,42.0,35.6,28.7,97,89,68,29.90,29.58,16,1,16,0.27
2013-4-9,51.5,41.1,31.2,31.1,20.2,8.3,86,48,19,30.15,29.89,20,2,20,0.00
2013-4-10,61.7,49.4,40.2,20.6,16.1,5.9,43,27,13,30.23,30.10,22,3,22,0.00
2013-4-11,60.6,52.0,46.4,41.1,29.2,17.9,76,44,28,30.11,29.79,11,1,11,0.00
2013-4-12,69.0,55.2,46.5,46.4,37.0,30.6,69,52,27,29.91,29.81,8,0,8,0.00
2013-4-13,61.2,52.4,45.1,46.8,39.6,27.9,95,64,38,29.90,29.78,14,2,14,0.00
2013-4-14,68.0,48.8,36.6,45.2,37.6,28.8,96,69,33,29.81,29.72,11,1,11,0.00
2013-4-15,40.3,38.2,36.1,39.8,37.4,34.8,98,97,91,29.93,29.76,16,2,16,0.07
2013-4-16,46.2,35.6,29.7,38.1,30.5,20.4,99,83,47,30.09,29.85,16,2,16,0.07
2013-4-17,49.2,38.7,28.8,25.8,14.3,4.9,78,40,19,30.29,30.07,18,2,18,0.00
2013-4-18,54.5,44.1,35.3,15.6,7.4,1.9,33,23,15,30.36,30.27,18,3,21,0.00
2013-4-19,66.5,52.5,40.8,22.1,12.7,2.9,29,21,12,30.31,30.07,10,1,11,0.00
2013-4-20,71.5,57.1,45.8,36.3,26.4,16.8,46,32,16,30.09,29.99,16,1,16,0.00
2013-4-21,69.0,60.0,53.4,36.0,27.4,17.5,42,29,20,30.03,29.96,13,1,13,0.00
2013-4-22,71.8,57.3,49.3,44.9,35.9,25.8,65,46,19,29.98,29.84,13,1,13,0.00
2013-4-23,67.8,56.7,49.2,40.2,31.7,18.4,61,41,17,29.98,29.83,12,1,12,0.00
2013-4-24,63.6,51.8,41.3,49.0,37.7,25.8,97,64,29,29.92,29.80,11,1,11,0.00
2013-4-25,61.4,45.0,38.1,49.4,40.6,29.4,98,86,41,30.19,29.88,10,1,10,0.00
2013-4-26,69.5,56.7,47.0,42.4,31.6,16.0,60,40,19,30.23,30.14,10,1,10,0.00
2013-4-27,75.0,62.4,54.3,41.0,27.9,13.5,42,28,11,30.20,30.02,14,0,14,0.00
2013-4-28,77.3,63.6,55.1,45.7,32.3,21.6,54,32,15,30.03,29.88,9,1,9,0.00
2013-4-29,74.0,63.7,53.2,99.9,32.9,18.7,59,32,18,29.90,29.74,10,1,10,0.00
2013-4-30,62.4,54.9,48.7,48.8,40.8,26.2,90,61,35,29.84,29.72,12,2,12,0.00
2013-5-1,71.3,59.0,48.5,44.8,16.3,-13.7,84,27,5,30.17,29.83,17,2,17,0.00
2013-5-2,65.3,56.7,50.2,5.2,-2.5,-13.5,13,9,5,30.22,30.14,22,3,22,0.00
2013-5-3,72.8,60.4,50.5,24.2,10.7,-4.9,24,14,9,30.16,29.86,9,0,9,0.00
2013-5-4,64.5,55.3,42.8,41.6,23.2,2.7,88,35,12,29.87,29.70,15,2,15,0.00
2013-5-5,45.2,41.8,38.8,41.4,37.8,26.5,97,87,49,29.98,29.75,16,2,16,0.04
2013-5-6,41.9,40.4,38.9,41.5,39.9,38.1,99,98,97,30.08,29.94,17,3,17,1.08
2013-5-7,44.5,39.7,36.3,42.6,39.0,36.0,99,98,92,30.16,30.05,12,1,12,0.23
2013-5-8,52.2,42.7,35.8,47.1,40.8,35.3,98,93,66,30.19,30.13,13,1,13,0.00
2013-5-9,63.2,49.7,40.8,49.0,44.1,39.6,97,82,47,30.18,30.08,14,1,14,0.01
2013-5-10,69.5,57.5,45.4,48.3,41.7,32.0,90,59,28,30.17,30.10,18,1,18,0.00
2013-5-11,76.2,65.2,55.1,47.7,39.2,26.2,63,40,17,30.15,30.05,11,0,11,0.00
2013-5-12,80.0,68.8,60.8,46.1,37.1,30.5,47,32,18,30.11,29.95,7,0,7,0.00
2013-5-13,81.0,70.3,62.8,44.0,37.4,31.8,40,31,19,30.02,29.91,11,0,11,0.00
2013-5-14,69.8,61.9,51.6,42.0,33.7,21.2,58,35,21,29.95,29.85,18,2,18,0.00
2013-5-15,70.6,57.7,51.7,47.3,39.3,23.9,75,52,30,29.99,29.93,9,1,9,0.00
2013-5-16,59.9,54.4,48.8,49.8,44.3,38.0,89,69,48,29.93,29.87,13,2,13,0.00
2013-5-17,52.6,47.6,44.5,47.7,45.2,42.0,97,91,83,30.03,29.85,14,1,14,0.00
2013-5-18,67.3,52.3,41.1,50.9,42.1,31.8,97,71,32,30.09,30.01,10,1,10,0.00
2013-5-19,73.2,58.7,47.4,48.9,32.1,25.5,61,38,18,30.03,29.92,11,1,11,0.00
2013-5-20,74.8,61.9,50.1,31.5,25.7,19.0,42,26,16,30.02,29.95,9,0,9,0.00
2013-5-21,69.8,61.5,52.5,47.9,36.1,16.5,70,41,19,29.98,29.79,14,1,14,0.00
2013-5-22,63.2,53.9,44.5,48.8,41.1,31.6,96,64,43,29.80,29.73,14,2,14,0.00
2013-5-23,55.4,46.9,40.2,46.6,41.6,29.5,97,82,61,29.97,29.75,16,2,16,0.00
2013-5-24,58.7,51.1,45.0,46.3,33.7,6.0,93,57,19,30.01,29.94,14,2,14,0.00
2013-5-25,57.1,49.8,42.8,44.1,32.6,1.3,93,56,17,30.05,29.94,15,2,15,0.00
2013-5-26,57.1,50.1,42.7,47.1,38.8,22.3,93,67,34,30.07,29.99,14,2,14,0.00
2013-5-27,73.7,55.7,44.0,51.6,41.3,31.1,83,61,24,30.03,29.84,11,1,11,0.00
2013-5-28,72.3,56.0,46.7,51.6,42.2,33.2,87,62,29,29.86,29.76,16,1,16,0.00
2013-5-29,76.5,60.2,48.6,52.3,40.5,23.7,76,51,17,29.86,29.74,16,2,16,0.00
2013-5-30,76.1,61.9,51.6,53.1,43.7,28.4,79,54,19,29.87,29.77,10,1,10,0.00
2013-5-31,80.3,66.7,55.3,51.5,37.5,25.7,76,36,15,29.93,29.83,12,1,12,0.00
2013-6-1,83.3,71.8,62.8,48.7,35.5,26.8,41,27,16,29.89,29.74,9,0,9,0.00
2013-6-2,73.2,66.5,56.9,53.9,44.3,30.4,84,48,26,29.75,29.65,13,1,13,0.00
2013-6-3,67.3,61.1,53.9,50.8,40.0,20.8,74,46,26,29.84,29.68,12,2,12,0.00
2013-6-4,70.3,61.2,55.1,52.0,36.7,-2.1,74,43,10,29.94,29.82,10,1,10,0.00
2013-6-5,82.5,67.0,59.0,52.5,30.5,-2.1,61,29,8,29.95,29.85,9,1,9,0.00
2013-6-6,83.0,69.3,61.6,55.3,37.8,17.6,60,34,17,29.89,29.80,9,1,9,0.00
2013-6-7,86.2,73.9,63.1,50.0,29.4,17.6,37,20,10,29.83,29.71,5,0,5,0.00
2013-6-8,86.0,74.7,67.7,56.0,37.7,21.9,53,28,10,29.77,29.68,11,1,11,0.00
2013-6-9,73.2,65.4,57.1,51.1,37.7,23.2,68,38,20,29.84,29.74,13,1,13,0.00
2013-6-10,65.7,57.4,51.7,47.5,37.9,26.6,76,49,30,29.96,29.78,20,2,20,0.00
2013-6-11,76.7,66.7,55.3,49.1,36.1,20.9,48,33,18,30.00,29.91,9,1,9,0.00
2013-6-12,70.6,64.0,56.6,53.9,44.7,29.7,78,51,27,29.93,29.87,11,1,11,0.00
2013-6-13,70.5,63.7,57.5,52.0,36.0,11.2,57,37,15,29.98,29.89,12,1,12,0.00
2013-6-14,72.8,64.2,56.9,49.5,31.9,4.8,71,35,11,29.89,29.80,12,1,12,0.00
2013-6-15,67.3,60.5,56.0,46.4,32.9,10.7,68,38,14,29.95,29.80,12,1,12,0.00
2013-6-16,72.3,62.7,54.4,47.6,27.4,-17.8,59,29,4,30.02,29.94,11,1,11,0.00
2013-6-17,76.7,64.4,55.7,52.8,38.2,22.5,68,40,18,29.99,29.88,10,1,10,0.00
2013-6-18,70.0,61.3,54.6,49.5,41.7,29.6,75,49,35,29.88,29.80,15,1,15,0.00
2013-6-19,74.7,59.4,47.7,53.1,41.3,16.0,77,55,11,29.87,29.78,9,1,11,0.00
2013-6-20,71.0,60.5,53.1,49.7,39.6,16.6,79,49,17,29.86,29.80,12,1,12,0.00
2013-6-21,67.5,60.7,54.1,47.9,42.4,29.7,71,52,31,29.89,29.80,15,1,15,0.00
2013-6-22,77.0,61.6,53.4,50.8,44.2,31.6,78,55,21,29.90,29.81,12,1,12,0.00
2013-6-23,63.9,57.7,51.8,51.1,46.0,34.9,85,66,45,29.83,29.77,13,2,13,0.00
2013-6-24,61.7,54.6,49.8,52.2,47.4,42.3,93,77,55,29.94,29.77,13,2,13,0.00
2013-6-25,76.7,62.6,51.8,58.0,52.4,47.1,86,70,43,30.00,29.93,10,1,10,0.00
2013-6-26,77.2,69.1,62.0,56.4,53.8,48.6,73,59,45,29.99,29.93,12,1,12,0.00
2013-6-27,80.8,71.3,64.6,56.1,51.1,19.3,65,50,35,30.03,29.96,10,1,10,0.00
2013-6-28,85.0,74.9,65.0,56.3,46.2,20.8,56,37,17,30.00,29.87,10,1,10,0.00
2013-6-29,89.0,78.7,71.5,58.8,42.1,7.7,47,28,8,29.89,29.75,7,0,7,0.00
2013-6-30,90.2,80.5,73.2,57.0,44.2,35.8,52,28,16,29.78,29.67,7,0,10,0.00
2013-7-1,81.8,74.8,68.9,58.2,46.7,36.5,55,37,24,29.86,29.72,15,1,15,0.00
2013-7-2,82.3,72.2,68.5,55.0,44.9,36.1,57,38,28,29.96,29.85,12,1,12,0.00
2013-7-3,85.8,72.4,68.9,56.2,47.9,41.2,58,42,29,29.90,29.76,9,1,9,0.00
2013-7-4,83.9,74.0,68.2,59.7,50.2,42.9,55,43,31,29.79,29.69,11,1,11,0.00
2013-7-5,77.4,70.2,65.6,54.9,50.8,42.9,67,51,39,29.78,29.69,10,1,10,0.00
2013-7-6,77.9,69.8,65.7,55.8,48.4,36.0,60,47,36,29.78,29.72,7,1,7,0.00
2013-7-7,81.5,72.9,65.8,54.0,41.8,22.6,55,34,16,29.83,29.74,10,1,10,0.00
2013-7-8,84.5,73.6,67.1,44.2,36.6,28.0,35,27,14,29.95,29.82,7,1,7,0.00
2013-7-9,84.8,74.7,68.1,48.7,38.4,29.2,39,27,18,29.99,29.91,10,1,10,0.00
2013-7-10,87.5,72.1,65.6,60.7,47.3,35.8,72,44,20,29.95,29.81,7,0,7,0.00
2013-7-11,69.0,64.8,60.7,59.1,49.6,40.1,86,59,37,29.91,29.82,5,0,5,0.00
2013-7-12,75.2,65.6,60.0,58.2,49.3,26.7,69,56,30,29.94,29.86,9,1,9,0.00
2013-7-13,83.3,70.8,62.8,52.4,39.6,20.3,54,33,18,29.95,29.85,10,1,10,0.00
2013-7-14,82.7,72.2,66.1,54.5,43.6,34.9,51,36,28,29.91,29.81,10,0,10,0.00
2013-7-15,78.1,69.5,62.8,54.3,45.3,34.7,60,42,32,29.83,29.75,12,1,12,0.00
2013-7-16,74.0,65.8,59.6,42.9,31.2,8.3,49,29,14,29.97,29.79,13,2,13,0.00
2013-7-17,77.8,67.5,58.6,37.8,28.6,9.9,37,24,13,30.05,29.96,11,1,11,0.00
2013-7-18,82.8,72.6,63.6,46.3,30.6,13.5,39,22,12,30.00,29.84,9,0,9,0.00
2013-7-19,82.3,73.8,67.8,50.8,35.3,6.3,50,28,8,29.88,29.75,11,1,11,0.00
2013-7-20,76.3,69.8,62.9,63.1,51.3,23.1,92,56,17,29.81,29.73,10,1,10,0.04
2013-7-21,69.8,65.6,61.6,61.3,58.4,52.4,94,78,61,29.90,29.74,9,0,9,0.06
2013-7-22,72.0,64.8,58.8,62.9,59.4,56.3,95,83,68,29.96,29.86,15,1,15,0.00
2013-7-23,74.8,66.0,60.1,61.8,55.7,50.4,85,70,54,29.99,29.91,9,1,9,0.00
2013-7-24,79.3,71.0,64.1,59.1,53.6,45.5,71,54,42,29.96,29.85,6,1,11,0.00
2013-7-25,81.8,73.3,67.8,56.6,49.3,36.0,56,43,30,29.97,29.86,10,1,10,0.00
2013-7-26,76.0,70.2,66.1,60.5,50.6,35.0,70,51,29,30.02,29.93,6,0,6,0.00
2013-7-27,77.8,69.3,64.3,60.5,54.6,43.8,74,60,45,29.96,29.83,10,1,10,0.00
2013-7-28,74.8,66.3,60.1,54.2,45.0,34.3,63,47,33,29.86,29.80,13,1,13,0.00
2013-7-29,74.0,65.2,59.3,47.5,39.1,16.1,61,40,18,29.99,29.85,10,1,10,0.00
2013-7-30,75.3,67.0,60.2,51.9,46.4,35.6,66,48,35,30.05,29.98,11,1,11,0.00
2013-7-31,74.8,67.1,60.8,51.6,42.8,31.5,66,43,21,30.03,29.93,18,1,18,0.00
2013-8-1,73.2,65.3,58.9,44.9,30.4,11.9,52,29,10,29.96,29.87,6,1,11,0.00
2013-8-2,72.3,63.8,57.0,49.0,41.5,26.4,73,46,28,29.92,29.86,10,1,14,0.00
2013-8-3,74.1,64.7,57.0,48.9,37.3,13.4,74,39,13,29.98,29.90,8,1,12,0.00
2013-8-4,75.7,67.2,60.7,48.3,36.8,22.3,61,35,16,29.99,29.92,10,1,10,0.00
2013-8-5,77.2,67.9,60.3,46.6,28.3,0.8,57,26,8,29.98,29.91,9,1,9,0.00
2013-8-6,75.0,66.0,59.7,39.3,27.4,1.7,44,25,7,30.00,29.89,13,1,13,0.00
2013-8-7,71.9,63.6,57.4,42.9,30.4,12.7,55,29,16,30.03,29.96,11,1,11,0.00
2013-8-8,71.2,63.1,57.6,39.8,25.4,4.3,49,26,11,29.99,29.89,16,1,16,0.00
2013-8-9,69.7,60.6,54.2,47.3,35.3,20.0,70,41,18,29.94,29.86,13,1,13,0.00
2013-8-10,71.8,61.3,52.4,43.9,33.3,13.2,70,37,15,30.01,29.94,12,1,12,0.00
2013-8-11,74.8,64.1,56.0,45.7,37.1,16.8,59,38,19,29.98,29.89,10,1,10,0.00
2013-8-12,77.7,67.7,60.3,47.8,34.3,10.3,57,30,13,29.96,29.89,9,1,9,0.00
2013-8-13,81.5,71.5,63.9,44.1,32.4,12.1,37,24,13,29.95,29.86,11,1,11,0.00
2013-8-14,84.3,74.4,66.9,41.8,28.7,0.1,35,19,4,29.92,29.83,11,0,11,0.00
2013-8-15,83.1,73.5,67.5,45.7,36.9,24.8,42,27,15,29.91,29.84,11,1,11,0.00
2013-8-16,81.7,72.5,66.7,54.2,50.0,43.5,56,46,31,29.93,29.86,11,1,11,0.00
2013-8-17,82.8,72.6,64.9,99.9,48.8,42.7,62,44,26,29.92,29.81,12,1,12,0.00
2013-8-18,85.0,75.0,68.5,55.6,50.7,44.6,54,43,34,29.85,29.76,12,1,12,0.00
2013-8-19,81.0,71.7,65.6,59.8,54.5,50.9,67,55,40,29.87,29.79,10,1,10,0.00
2013-8-20,81.0,71.8,65.7,55.2,48.0,37.9,63,44,25,29.88,29.82,14,1,14,0.00
2013-8-21,84.0,72.9,65.7,47.0,38.4,26.1,46,29,16,29.92,29.83,11,1,11,0.00
2013-8-22,82.3,72.5,65.3,48.8,41.4,28.5,45,33,25,29.90,29.80,11,1,11,0.00
2013-8-23,81.0,70.8,63.8,42.5,37.6,27.2,42,30,21,29.85,29.73,13,1,13,0.00
2013-8-24,79.8,68.9,62.7,53.0,39.1,27.5,70,36,19,29.84,29.77,16,2,16,0.00
2013-8-25,79.1,67.4,60.7,56.0,51.2,35.0,78,58,31,29.92,29.81,14,1,14,0.00
2013-8-26,67.7,63.3,59.3,60.2,56.2,51.6,85,78,70,29.93,29.87,6,0,6,0.00
2013-8-27,76.8,64.8,59.8,60.7,57.2,54.9,88,77,55,29.90,29.85,13,1,13,0.00
2013-10-19,68.0,61.4,55.0,28.0,19.3,14.0,30,20,13,30.26,30.10,2,-905,0,0.00
2013-10-20,68.3,58.7,53.4,31.0,19.2,8.0,39,22,13,30.21,30.08,0,-999,0,0.00
2013-10-21,69.0,60.0,55.0,29.0,16.4,5.0,25,18,13,30.17,29.98,0,-602,5,0.00
2013-10-22,69.3,60.5,55.0,32.0,19.6,13.0,34,21,13,30.05,29.95,4,0,7,0.00
2013-10-23,68.4,58.7,53.6,32.0,22.8,19.0,32,25,17,29.97,29.90,3,0,7,0.00
2013-10-24,67.5,58.5,51.9,28.0,22.0,18.0,32,25,17,30.06,29.93,3,0,9,0.00
2013-10-25,69.0,60.5,52.7,28.0,21.1,18.0,33,22,16,30.15,30.06,3,0,9,0.00
2013-10-26,69.9,62.1,56.7,29.0,24.6,18.0,32,24,18,30.15,30.04,4,0,9,0.00
2013-10-27,64.7,55.7,42.8,43.0,30.9,22.0,95,45,23,30.03,29.72,6,1,15,0.00
2013-10-28,43.0,38.3,34.8,42.0,37.8,34.0,98,97,96,29.98,29.66,12,3,24,0.83
2013-10-29,37.2,35.6,33.0,37.0,35.1,33.0,99,98,98,30.14,29.97,3,0,13,0.44
2013-10-30,48.0,39.4,32.4,36.0,31.3,26.0,99,76,54,30.23,30.12,5,0,7,0.01
2013-10-31,55.0,47.1,39.8,30.0,21.7,12.0,58,37,28,30.27,30.19,5,1,9,0.00
2013-11-1,58.8,51.3,46.1,30.0,25.2,18.0,42,36,30,30.25,30.13,4,0,9,0.00
2013-11-2,59.6,51.4,45.7,35.0,25.9,21.0,61,38,25,30.13,29.95,4,0,10,0.00
2013-11-3,54.2,45.9,40.4,41.0,32.6,25.0,85,61,40,29.96,29.85,5,1,9,0.00
2013-11-4,47.6,42.2,39.4,44.0,33.3,21.0,97,73,42,30.05,29.81,9,1,15,0.00
2013-11-5,44.9,40.5,35.5,23.0,13.1,7.0,51,34,23,30.37,30.05,11,3,24,0.00
2013-11-6,53.3,46.0,37.3,14.0,7.9,4.0,31,21,16,30.45,30.34,6,1,9,0.00
2013-11-7,63.2,54.4,47.3,36.0,17.8,6.0,46,25,14,30.34,30.12,3,0,7,0.00
2013-11-8,61.7,55.0,50.6,21.0,14.3,8.0,28,20,15,30.13,30.01,4,0,10,0.00
2013-11-9,60.0,53.9,50.5,21.0,11.2,-3.0,23,18,10,30.16,30.04,9,1,11,0.00
2013-11-10,61.3,54.5,50.7,21.0,13.2,-10.0,30,20,7,30.19,30.13,3,0,8,0.00
2013-11-11,63.0,54.6,48.1,27.0,20.3,4.0,33,26,16,30.24,30.14,2,0,5,0.00
2013-11-12,64.6,58.0,51.3,36.0,25.9,13.0,40,30,19,30.28,30.20,1,0,3,0.00
2013-11-13,64.2,56.9,51.8,30.0,21.8,17.0,33,26,20,30.20,30.06,3,0,6,0.00
2013-11-14,65.8,56.5,51.3,27.0,22.4,15.0,37,27,19,30.09,29.78,4,0,10,0.00
2013-11-15,51.8,44.0,40.0,42.0,36.2,24.0,97,78,35,29.78,29.66,10,1,14,0.00
2013-11-16,40.2,39.0,37.7,40.0,38.5,37.0,99,98,97,30.02,29.78,7,2,16,0.09
2013-11-17,47.0,41.1,35.0,45.0,39.2,35.0,99,93,84,30.20,30.01,3,0,7,0.01
2013-11-18,49.7,43.2,37.8,43.0,39.8,36.0,97,88,71,30.24,30.13,5,1,10,0.00
2013-11-19,55.8,45.9,37.0,45.0,36.5,30.0,98,72,41,30.13,30.00,6,0,11,0.01
2013-11-20,45.8,41.3,39.6,42.0,39.8,33.0,98,94,64,29.99,29.93,4,1,10,0.00
2013-11-21,43.4,39.4,33.1,43.0,39.1,33.0,99,99,98,29.98,29.89,12,1,17,1.25
2013-11-22,35.4,31.6,29.9,35.0,31.5,30.0,99,99,99,30.15,29.96,4,0,11,1.05
2013-11-23,32.8,31.6,30.2,33.0,31.4,30.0,99,99,99,30.28,30.14,3,0,7,0.48
2013-11-24,38.3,34.4,31.8,38.0,33.9,32.0,99,98,94,30.38,30.27,5,0,10,0.36
2013-11-25,47.7,40.5,33.5,34.0,31.5,28.0,96,72,49,30.45,30.35,10,2,12,0.14
2013-11-26,54.0,44.8,40.1,38.0,31.4,26.0,71,60,50,30.39,30.21,3,0,6,0.06
2013-11-27,53.9,45.4,41.0,34.0,29.4,26.0,62,54,43,30.21,30.01,1,0,7,0.02
2013-11-28,46.6,41.7,38.7,32.0,29.3,26.0,75,62,53,30.19,30.00,3,0,10,0.02
2013-11-29,44.2,41.1,38.8,42.0,35.2,28.0,95,81,57,30.32,30.18,0,0,4,0.02
2013-11-30,47.3,42.3,37.1,38.0,34.5,30.0,94,75,63,30.37,30.28,3,0,6,0.01
2013-12-1,51.1,44.9,39.6,31.0,27.2,15.0,69,52,27,30.41,30.32,8,1,12,0.01
2013-12-2,60.0,51.1,45.2,38.0,23.0,14.0,48,34,23,30.32,29.95,2,0,7,0.02
2013-12-3,46.7,42.4,37.6,39.0,30.5,22.0,97,66,38,29.95,29.73,10,3,18,0.01
2013-12-4,37.3,28.9,23.5,37.0,22.2,15.0,97,78,51,30.08,29.75,4,1,10,0.12
2013-12-5,31.6,28.6,24.4,28.0,25.8,22.0,96,90,72,30.22,30.07,2,0,9,0.03
2013-12-6,30.8,28.9,26.7,30.0,27.7,26.0,97,95,89,30.30,30.21,9,2,12,0.00
2013-12-7,31.8,29.0,27.2,31.0,28.4,27.0,98,97,97,30.22,30.09,16,2,18,0.00
2013-12-8,29.0,24.8,16.7,29.0,23.9,15.0,98,96,93,30.38,30.19,6,0,11,0.00
2013-12-9,27.4,21.1,16.3,15.0,6.1,-4.0,93,57,34,30.66,30.37,12,2,21,0.00
2013-12-10,36.6,28.5,19.7,11.0,2.6,-5.0,39,33,24,30.64,30.43,3,0,6,0.08
2013-12-11,39.5,35.6,30.0,15.0,9.1,0.0,45,34,22,30.43,30.38,2,0,5,0.18
2013-12-12,46.9,38.5,32.5,23.0,15.4,10.0,54,39,29,30.42,30.31,2,0,7,0.26
2013-12-13,47.7,40.6,36.5,18.0,13.5,8.0,46,34,24,30.39,30.26,8,1,18,0.12
2013-12-14,44.9,40.0,34.8,19.0,14.9,8.0,48,36,22,30.50,30.36,13,4,26,0.03
2013-12-15,48.8,43.5,36.0,21.0,17.4,12.0,44,35,30,30.50,30.39,5,1,12,0.01
2013-12-16,56.6,50.4,43.5,27.0,22.7,18.0,42,34,29,30.40,30.30,3,0,5,0.00
2013-12-17,63.9,55.5,48.7,37.0,25.1,19.0,39,31,22,30.32,30.12,1,0,4,0.00
2013-12-18,59.8,50.7,35.8,34.0,25.4,18.0,91,41,21,30.11,29.78,8,1,16,0.00
2013-12-19,35.3,32.9,31.5,34.0,32.2,31.0,98,97,93,29.90,29.69,8,2,24,0.00
2013-12-20,32.0,29.6,26.0,31.0,27.4,22.0,98,92,73,30.14,29.89,6,1,15,0.02
2013-12-21,44.4,38.3,29.6,34.0,27.7,20.0,79,66,57,30.22,30.08,4,0,8,0.24
2013-12-22,47.2,41.1,36.7,29.0,27.1,25.0,67,58,44,30.42,30.21,6,1,9,0.21
2013-12-23,45.9,41.5,38.1,31.0,27.9,26.0,64,59,53,30.51,30.42,6,1,11,0.08
2013-12-24,52.8,45.7,39.6,30.0,27.5,23.0,62,50,38,30.44,30.32,9,2,17,0.00
2013-12-25,47.8,42.7,39.5,26.0,19.2,6.0,55,40,23,30.41,30.33,8,3,17,0.00
2013-12-26,50.2,45.0,40.3,10.0,5.4,-5.0,26,20,10,30.39,30.31,7,2,18,0.00
2013-12-27,55.7,48.6,42.9,16.0,7.3,-7.0,25,19,10,30.36,30.20,5,1,9,0.01
2013-12-28,57.3,49.7,44.1,23.0,10.5,4.0,31,21,13,30.19,30.01,4,0,11,0.03
2013-12-29,44.5,40.9,37.9,14.0,7.6,-5.0,36,26,14,30.36,30.10,9,3,22,0.01
2013-12-30,57.4,47.0,38.7,19.0,3.3,-13.0,31,17,8,30.43,30.32,3,0,5,0.03
2013-12-31,58.7,50.1,44.8,19.0,8.8,0.0,24,19,14,30.32,30.17,2,0,8,0.01
2014-1-1,52.2,46.9,43.2,18.0,13.0,6.0,34,26,21,30.28,30.18,3,1,7,0.00
2014-1-2,57.5,48.8,43.9,31.0,23.9,18.0,47,38,32,30.27,30.14,1,0,3,0.00